Aspen-Pitkin Co/Sardy Field
KASE : rendu visible

Aérodrome :











RETROUVEZ-NOUS SUR...

 
LOGIN :

S'inscrire | Disclaimer

   EN    FR    IT 

 









Légende :    VFR   VFR Marginal   IFR   IFR Intensif   IFR Très Intensif
Visi : 
Plafond : 
>= 8 km
>= 3000ft
5 à 8 km
1000 à 3000 ft
1500m à 5 km
500 à 1000 ft
800 à 1500m
200 à 500 ft
< 800m
< 200 ft
Symboles :   Orages  Brouillard  Fortes neiges  Fortes précipitations  Vent > 20 kt






- Altitude de l'aérodrome : 7820 ft


KASE - Aspen-Pitkin Co/Sardy Field

DERNIER METAR :
  • 260753Z AUTO 10SM FEW070 M07/M11 A3019 RMK AO2 SLP213 T10671111

METARs EXPIRÉS :
  • 260653Z AUTO 20005KT 10SM BKN070 M07/M11 A3020 RMK AO2 SLP226 T10721106 400391089
  • 260553Z AUTO 21005KT 10SM CLR M08/M12 A3018 RMK AO2 SLP224 T10831117 11022 21083 53005

TAF KASE
Valide du 26 à 06h jusqu'au 27 à 06h UTC


260520Z 2606/2706 21005KT P6SM SCT060 BKN250
FM262200 32005KT P6SM SCT150
FM270100 21005KT P6SM FEW100



MET'MAP, la Météo Aéronautique d'un coup d'oeil ! - Copyright ORBIFLY Décembre 2007 - Disclaimer

ORBIFLY MET'MAP TEAM :

Programmation & Développement : Alexandra Zaïnal
Sur une idée originale de : Baudouin d'Aumeries
Assistance à la programmation : Marc-Olivier Méhu
Soutien technique & logistique : Manuel Goepfert

Contact : metmap@orbifly.com




SOURCES & CREDITS :

   NOAA       Earth
Advisory